Time;durP1;ratioP1;P1;durP2;ratioP2;P2;SDS_P1;SDS_P2;PMS_P1;PMS_P2;Temp;Humidity;BMP_temperature;BMP_pressure;BME280_temperature;BME280_humidity;BME280_pressure;Samples;Min_cycle;Max_cycle;Signal;HPM_P1;HPM_P2
2023/02/04 00:01:46;;;;;;;1.50;1.00;;;3.10;99.90;;;;;;5019536;28;20026;-55
2023/02/04 00:04:12;;;;;;;5.30;1.02;;;3.10;99.90;;;;;;5017879;28;20022;-56
2023/02/04 00:06:37;;;;;;;3.95;0.75;;;3.10;99.90;;;;;;5020147;28;20048;-56
2023/02/04 00:09:03;;;;;;;3.63;1.10;;;3.10;99.90;;;;;;5019406;28;20065;-54
2023/02/04 00:11:29;;;;;;;1.65;1.33;;;3.10;99.90;;;;;;5019287;28;20029;-55
2023/02/04 00:13:54;;;;;;;0.85;0.60;;;3.10;99.90;;;;;;5020060;28;20843;-54
2023/02/04 00:16:20;;;;;;;1.80;0.80;;;3.20;99.90;;;;;;5018608;28;20033;-56
2023/02/04 00:18:45;;;;;;;0.93;0.80;;;3.10;99.90;;;;;;5018680;28;20052;-57
2023/02/04 00:21:11;;;;;;;1.40;1.00;;;3.10;99.90;;;;;;5018859;28;20022;-54
2023/02/04 00:23:36;;;;;;;1.90;1.10;;;3.10;99.90;;;;;;5017907;28;20026;-53
2023/02/04 00:26:02;;;;;;;1.40;1.30;;;3.00;99.90;;;;;;5019074;28;20049;-54
2023/02/04 00:28:28;;;;;;;3.85;1.05;;;2.90;99.90;;;;;;5019189;28;20045;-57
2023/02/04 00:30:53;;;;;;;1.90;1.00;;;2.90;99.90;;;;;;5016470;28;20087;-57
2023/02/04 00:33:19;;;;;;;1.30;1.10;;;2.90;99.90;;;;;;5017579;28;20030;-53
2023/02/04 00:35:44;;;;;;;1.42;1.17;;;2.90;99.90;;;;;;5017796;28;20499;-53
2023/02/04 00:38:10;;;;;;;1.05;0.73;;;2.80;99.90;;;;;;5018882;28;20038;-54
2023/02/04 00:40:36;;;;;;;1.77;1.00;;;2.70;99.90;;;;;;5016409;28;20072;-55
2023/02/04 00:43:01;;;;;;;1.00;0.90;;;2.70;99.90;;;;;;5019633;28;20029;-55
2023/02/04 00:45:27;;;;;;;3.75;1.42;;;2.70;99.90;;;;;;5018621;28;20026;-55
2023/02/04 00:47:53;;;;;;;4.70;1.25;;;2.60;99.90;;;;;;5019231;28;20059;-57
2023/02/04 00:50:19;;;;;;;3.10;1.20;;;2.60;99.90;;;;;;5018966;28;20025;-56
2023/02/04 00:52:44;;;;;;;1.38;0.90;;;2.50;99.90;;;;;;5017676;28;20026;-57
2023/02/04 00:55:11;;;;;;;2.08;1.10;;;2.50;99.90;;;;;;5018497;28;20096;-55
2023/02/04 00:57:37;;;;;;;1.17;0.90;;;2.40;99.90;;;;;;5019228;28;20035;-56
2023/02/04 01:00:04;;;;;;;0.90;0.80;;;2.40;99.90;;;;;;5018972;28;20389;-54
2023/02/04 01:02:30;;;;;;;3.05;1.23;;;2.40;99.90;;;;;;5017710;28;20061;-56
2023/02/04 01:04:56;;;;;;;1.38;1.10;;;2.30;99.90;;;;;;5017484;28;20144;-55
2023/02/04 01:07:22;;;;;;;1.98;0.90;;;2.30;99.90;;;;;;5018214;28;20018;-57
2023/02/04 01:09:47;;;;;;;2.70;1.27;;;2.20;99.90;;;;;;5018480;28;20430;-56
2023/02/04 01:12:13;;;;;;;1.95;1.00;;;2.20;99.90;;;;;;5018290;28;20407;-56
2023/02/04 01:14:38;;;;;;;1.52;1.13;;;2.20;99.90;;;;;;5016596;28;20549;-52
2023/02/04 01:17:04;;;;;;;1.23;1.13;;;2.10;99.90;;;;;;5015560;28;20033;-56
2023/02/04 01:19:30;;;;;;;1.42;1.00;;;2.10;99.90;;;;;;5015985;28;20113;-56
2023/02/04 01:21:55;;;;;;;1.50;1.20;;;2.00;99.90;;;;;;5018368;28;20053;-56
2023/02/04 01:24:21;;;;;;;1.25;1.00;;;2.00;99.90;;;;;;5017776;28;20021;-52
2023/02/04 01:26:46;;;;;;;2.25;1.33;;;1.90;99.90;;;;;;5018678;28;20022;-53
2023/02/04 01:29:12;;;;;;;1.13;0.95;;;1.90;99.90;;;;;;5017191;28;20034;-56
2023/02/04 01:31:37;;;;;;;2.40;1.15;;;1.90;99.90;;;;;;5016253;28;20381;-56
2023/02/04 01:34:03;;;;;;;2.38;1.40;;;1.80;99.90;;;;;;5017726;28;20079;-56
2023/02/04 01:36:28;;;;;;;3.42;1.13;;;1.80;99.90;;;;;;5000315;28;20080;-56
2023/02/04 01:38:54;;;;;;;1.33;0.93;;;1.80;99.90;;;;;;5017859;28;20040;-57
2023/02/04 01:41:20;;;;;;;1.55;1.23;;;1.70;99.90;;;;;;5018198;28;20021;-54
2023/02/04 01:43:47;;;;;;;2.38;1.10;;;1.70;99.90;;;;;;5016400;28;20026;-53
2023/02/04 01:46:14;;;;;;;2.17;1.30;;;1.60;99.90;;;;;;5018671;28;20718;-55
2023/02/04 01:48:40;;;;;;;2.85;1.30;;;1.60;99.90;;;;;;5015386;28;20029;-55
2023/02/04 01:51:12;;;;;;;2.03;1.10;;;1.60;99.90;;;;;;5017924;28;20026;-56
2023/02/04 01:53:38;;;;;;;1.33;0.95;;;1.60;99.90;;;;;;5018255;28;20045;-53
2023/02/04 01:56:19;;;;;;;1.17;0.95;;;1.60;99.90;;;;;;5017594;28;20029;-54
2023/02/04 01:58:45;;;;;;;1.35;1.08;;;1.60;99.90;;;;;;5013842;28;20032;-57
2023/02/04 02:01:31;;;;;;;3.05;1.10;;;1.60;99.90;;;;;;5016878;28;20543;-53
2023/02/04 02:03:57;;;;;;;4.07;1.15;;;1.60;99.90;;;;;;5016966;28;20032;-54
2023/02/04 02:06:22;;;;;;;2.22;1.55;;;1.60;99.90;;;;;;5017218;28;20037;-56
2023/02/04 02:08:48;;;;;;;1.33;1.13;;;1.60;99.90;;;;;;5017299;28;20025;-54
2023/02/04 02:11:14;;;;;;;2.47;1.33;;;1.60;99.90;;;;;;5017503;28;20136;-57
2023/02/04 02:13:39;;;;;;;3.03;1.73;;;1.60;99.90;;;;;;5016505;28;20022;-54
2023/02/04 02:16:05;;;;;;;4.30;1.50;;;1.60;99.90;;;;;;5015564;28;20041;-57
2023/02/04 02:18:31;;;;;;;2.50;1.35;;;1.70;99.90;;;;;;5018304;28;20361;-55
2023/02/04 02:21:02;;;;;;;4.68;2.00;;;1.60;99.90;;;;;;5018047;28;20400;-54
2023/02/04 02:23:56;;;;;;;3.08;1.55;;;1.70;99.90;;;;;;5017195;28;20030;-54
2023/02/04 02:26:22;;;;;;;8.25;2.00;;;1.60;99.90;;;;;;5018182;28;20557;-53
2023/02/04 02:28:49;;;;;;;1.98;1.60;;;1.60;99.90;;;;;;5021124;28;20033;-53
2023/02/04 02:31:16;;;;;;;2.20;1.38;;;1.50;99.90;;;;;;5022770;28;20507;-53
2023/02/04 02:33:42;;;;;;;2.25;1.60;;;1.50;99.90;;;;;;5020818;28;20033;-56
2023/02/04 02:36:08;;;;;;;2.08;1.40;;;1.50;99.90;;;;;;5019401;28;20116;-52
2023/02/04 02:38:33;;;;;;;2.67;1.58;;;1.50;99.90;;;;;;5021621;28;20522;-56
2023/02/04 02:40:59;;;;;;;4.18;1.70;;;1.40;99.90;;;;;;5021057;28;20177;-54
2023/02/04 02:43:26;;;;;;;4.22;2.00;;;1.40;99.90;;;;;;5020796;28;20049;-55
2023/02/04 02:45:54;;;;;;;2.13;1.40;;;1.40;99.90;;;;;;5019027;28;20025;-57
2023/02/04 02:48:20;;;;;;;3.65;1.60;;;1.40;99.90;;;;;;5020076;28;20026;-56
2023/02/04 02:50:47;;;;;;;2.13;1.83;;;1.30;99.90;;;;;;5019404;28;20141;-56
2023/02/04 02:53:15;;;;;;;3.35;1.40;;;1.30;99.90;;;;;;5020575;28;20507;-55
2023/02/04 02:55:41;;;;;;;1.92;1.40;;;1.20;99.90;;;;;;5021238;28;20033;-55
2023/02/04 02:58:22;;;;;;;2.03;1.27;;;1.10;99.90;;;;;;5020775;28;20037;-56
2023/02/04 03:00:48;;;;;;;1.77;1.33;;;1.10;99.90;;;;;;5019705;28;20036;-56
2023/02/04 03:03:24;;;;;;;2.03;1.10;;;1.00;99.90;;;;;;5019307;28;20033;-56
2023/02/04 03:05:54;;;;;;;2.30;1.45;;;1.00;99.90;;;;;;5018784;28;20018;-56
2023/02/04 03:08:20;;;;;;;2.58;1.35;;;0.90;99.90;;;;;;5019885;28;20436;-58
2023/02/04 03:10:46;;;;;;;3.15;1.60;;;0.90;99.90;;;;;;5020450;28;20018;-55
2023/02/04 03:13:14;;;;;;;1.35;1.20;;;0.90;99.90;;;;;;5019954;28;20507;-58
2023/02/04 03:15:41;;;;;;;3.40;1.70;;;0.80;99.90;;;;;;5017740;28;20045;-56
2023/02/04 03:18:07;;;;;;;2.15;1.38;;;0.70;99.90;;;;;;5020851;28;20032;-57
2023/02/04 03:20:34;;;;;;;2.40;2.10;;;0.70;99.90;;;;;;5019979;28;20116;-56
2023/02/04 03:23:00;;;;;;;1.48;1.38;;;0.60;99.90;;;;;;5021613;28;20057;-55
2023/02/04 03:25:27;;;;;;;3.50;1.40;;;0.60;99.90;;;;;;5020575;28;20032;-55
2023/02/04 03:27:53;;;;;;;2.72;1.63;;;0.60;99.90;;;;;;5020002;28;20028;-54
2023/02/04 03:30:20;;;;;;;2.03;1.45;;;0.60;99.90;;;;;;5020516;28;20168;-52
2023/02/04 03:32:45;;;;;;;1.85;1.48;;;0.70;99.90;;;;;;5020901;28;20030;-56
2023/02/04 03:35:11;;;;;;;3.15;1.90;;;0.60;99.90;;;;;;5019471;28;20041;-55
2023/02/04 03:37:36;;;;;;;2.33;2.13;;;0.70;99.90;;;;;;5020192;28;20237;-57
2023/02/04 03:40:03;;;;;;;2.55;2.05;;;0.70;99.90;;;;;;5017467;28;20034;-55
2023/02/04 03:42:28;;;;;;;2.67;1.83;;;0.70;99.90;;;;;;5019346;28;20029;-55
2023/02/04 03:44:54;;;;;;;4.32;1.70;;;0.70;99.90;;;;;;5019802;28;20026;-57
2023/02/04 03:47:20;;;;;;;3.83;2.13;;;0.80;99.90;;;;;;5018174;28;20026;-58
2023/02/04 03:49:45;;;;;;;3.03;1.95;;;0.80;99.90;;;;;;5019049;28;20449;-57
2023/02/04 03:52:11;;;;;;;2.67;2.08;;;0.80;99.90;;;;;;5018431;28;20044;-55
2023/02/04 03:54:36;;;;;;;2.15;1.83;;;0.80;99.90;;;;;;5018841;28;20514;-56
2023/02/04 03:57:02;;;;;;;3.83;2.33;;;0.80;99.90;;;;;;5019262;28;20026;-58
2023/02/04 03:59:27;;;;;;;2.53;1.92;;;0.80;99.90;;;;;;5017747;28;20029;-57
2023/02/04 04:01:53;;;;;;;3.83;2.63;;;0.80;99.90;;;;;;5019587;28;20451;-56
2023/02/04 04:04:19;;;;;;;3.03;2.00;;;0.80;99.90;;;;;;5020345;28;20500;-58
2023/02/04 04:06:44;;;;;;;2.92;1.83;;;0.80;99.90;;;;;;5019808;28;20049;-57
2023/02/04 04:09:10;;;;;;;3.92;2.08;;;0.80;99.90;;;;;;5019619;28;20423;-56
2023/02/04 04:11:35;;;;;;;2.83;1.75;;;0.80;99.90;;;;;;5019639;28;20434;-55
2023/02/04 04:14:01;;;;;;;2.70;2.15;;;0.70;99.90;;;;;;5019163;28;20391;-56
2023/02/04 04:16:27;;;;;;;3.55;1.90;;;0.70;99.90;;;;;;5019839;28;20036;-56
2023/02/04 04:18:53;;;;;;;2.30;2.10;;;0.70;99.90;;;;;;5017430;28;20024;-57
2023/02/04 04:21:19;;;;;;;2.13;1.92;;;0.70;99.90;;;;;;5018930;28;20105;-59
2023/02/04 04:23:44;;;;;;;7.15;2.58;;;0.70;99.90;;;;;;5019665;28;20060;-56
2023/02/04 04:26:10;;;;;;;2.90;2.10;;;0.70;99.90;;;;;;5018479;28;20116;-54
2023/02/04 04:28:35;;;;;;;2.42;2.03;;;0.70;99.90;;;;;;5017437;28;20049;-58
2023/02/04 04:31:01;;;;;;;1.95;1.60;;;0.70;99.90;;;;;;5019138;28;20036;-59
2023/02/04 04:33:26;;;;;;;4.25;2.20;;;0.70;99.90;;;;;;5019624;28;20101;-56
2023/02/04 04:35:52;;;;;;;3.83;2.25;;;0.80;99.90;;;;;;5017841;28;20096;-57
2023/02/04 04:38:17;;;;;;;3.72;2.53;;;0.80;99.90;;;;;;5018856;28;20076;-57
2023/02/04 04:40:43;;;;;;;4.03;2.15;;;0.80;99.90;;;;;;5018593;28;20575;-58
2023/02/04 04:43:08;;;;;;;2.92;1.77;;;0.80;99.90;;;;;;5019083;28;20029;-58
2023/02/04 04:45:34;;;;;;;3.40;2.90;;;0.80;99.90;;;;;;5017389;28;20483;-57
2023/02/04 04:48:01;;;;;;;2.30;2.10;;;0.80;99.90;;;;;;5018888;28;20049;-57
2023/02/04 04:50:26;;;;;;;1.75;1.65;;;0.70;99.90;;;;;;5016673;28;20112;-57
2023/02/04 04:52:52;;;;;;;2.80;1.70;;;0.80;99.90;;;;;;5017841;28;20055;-58
2023/02/04 04:55:17;;;;;;;5.10;2.22;;;0.70;99.90;;;;;;5017768;28;20507;-57
2023/02/04 04:57:43;;;;;;;3.25;2.00;;;0.70;99.90;;;;;;5019579;28;20539;-58
2023/02/04 05:00:19;;;;;;;2.75;2.00;;;0.70;99.90;;;;;;5134396;22;20042;-77
2023/02/04 05:02:45;;;;;;;2.33;1.60;;;0.70;99.90;;;;;;5015437;28;20038;-78
2023/02/04 05:05:11;;;;;;;3.67;2.05;;;0.70;99.90;;;;;;5016240;28;20029;-78
2023/02/04 05:07:37;;;;;;;2.78;2.47;;;0.70;99.90;;;;;;5011709;28;20087;-77
2023/02/04 05:10:03;;;;;;;2.85;1.98;;;0.70;99.90;;;;;;5008667;28;20014;-78
2023/02/04 05:12:29;;;;;;;4.40;2.58;;;0.70;99.90;;;;;;5007155;28;20057;-78
2023/02/04 05:14:55;;;;;;;2.83;2.05;;;0.70;99.90;;;;;;5001302;28;20141;-78
2023/02/04 05:17:20;;;;;;;3.72;1.98;;;0.70;99.90;;;;;;4996813;28;20053;-79
2023/02/04 05:19:46;;;;;;;3.05;2.28;;;0.70;99.90;;;;;;5007653;28;20036;-78
2023/02/04 05:22:11;;;;;;;5.22;2.17;;;0.70;99.90;;;;;;4999601;28;20037;-79
2023/02/04 05:24:37;;;;;;;4.57;2.63;;;0.80;99.90;;;;;;5005847;28;20105;-79
2023/02/04 05:27:02;;;;;;;3.97;1.90;;;0.80;99.90;;;;;;5008392;28;20018;-79
2023/02/04 05:29:28;;;;;;;1.92;1.73;;;0.80;99.90;;;;;;4999949;28;20018;-78
2023/02/04 05:31:54;;;;;;;2.83;2.53;;;0.80;99.90;;;;;;5001049;28;20081;-79
2023/02/04 05:34:19;;;;;;;2.13;1.80;;;0.80;99.90;;;;;;5002258;28;20406;-78
2023/02/04 05:36:45;;;;;;;2.90;2.35;;;0.80;99.90;;;;;;5004915;28;20023;-77
2023/02/04 05:39:10;;;;;;;3.03;2.78;;;0.80;99.90;;;;;;5002629;28;20022;-79
2023/02/04 05:41:36;;;;;;;2.40;2.20;;;0.80;99.90;;;;;;4995410;28;20038;-77
2023/02/04 05:44:01;;;;;;;3.60;2.53;;;0.80;99.90;;;;;;5003300;28;20015;-78
2023/02/04 05:46:27;;;;;;;3.22;1.73;;;0.80;99.90;;;;;;5004301;28;20123;-77
2023/02/04 05:48:52;;;;;;;1.98;1.77;;;0.70;99.90;;;;;;5006503;28;20645;-78
2023/02/04 05:51:18;;;;;;;2.10;1.80;;;0.80;99.90;;;;;;4994446;28;20046;-78
2023/02/04 05:53:43;;;;;;;3.05;1.90;;;0.80;99.90;;;;;;5004971;28;20026;-77
2023/02/04 05:56:09;;;;;;;4.15;2.30;;;0.70;99.90;;;;;;4995076;28;20030;-79
2023/02/04 05:58:34;;;;;;;4.78;2.47;;;0.70;99.90;;;;;;5002280;28;20031;-78
2023/02/04 06:01:01;;;;;;;2.85;1.98;;;0.70;99.90;;;;;;5008452;28;20034;-79
2023/02/04 06:03:27;;;;;;;2.20;2.00;;;0.60;99.90;;;;;;5008771;28;20125;-79
2023/02/04 06:05:53;;;;;;;3.95;1.63;;;0.60;99.90;;;;;;5005440;28;20032;-80
2023/02/04 06:08:18;;;;;;;4.90;2.33;;;0.50;99.90;;;;;;5009739;28;20668;-79
2023/02/04 06:10:44;;;;;;;2.97;1.95;;;0.50;99.90;;;;;;5011414;28;20026;-78
2023/02/04 06:13:09;;;;;;;3.05;2.35;;;0.40;99.90;;;;;;5018451;28;20030;-79
2023/02/04 06:15:35;;;;;;;4.28;2.60;;;0.40;99.90;;;;;;5008172;28;20035;-78
2023/02/04 06:18:01;;;;;;;2.95;2.35;;;0.40;99.90;;;;;;5010834;28;20468;-78
2023/02/04 06:20:26;;;;;;;4.15;2.10;;;0.40;99.90;;;;;;5004189;28;20037;-78
2023/02/04 06:22:53;;;;;;;2.80;2.20;;;0.30;99.90;;;;;;5009873;28;20825;-79
2023/02/04 06:25:19;;;;;;;3.42;2.53;;;0.30;99.90;;;;;;5006412;28;20113;-79
2023/02/04 06:27:45;;;;;;;3.30;2.50;;;0.20;99.90;;;;;;5010465;28;20041;-78
2023/02/04 06:30:11;;;;;;;9.52;3.33;;;0.20;99.90;;;;;;5007904;28;20022;-78
2023/02/04 06:32:37;;;;;;;5.35;3.67;;;0.20;99.90;;;;;;5007623;28;20509;-78
2023/02/04 06:35:02;;;;;;;5.55;3.63;;;0.10;99.90;;;;;;5000192;28;20057;-79
2023/02/04 06:37:28;;;;;;;4.57;3.05;;;0.00;99.90;;;;;;5011943;28;20109;-78
2023/02/04 06:39:54;;;;;;;3.72;2.83;;;0.00;99.90;;;;;;5002981;28;20470;-78
2023/02/04 06:42:19;;;;;;;3.47;2.70;;;0.00;99.90;;;;;;5010958;28;20031;-78
2023/02/04 06:44:45;;;;;;;4.18;2.65;;;0.00;99.90;;;;;;4997291;28;20030;-78
2023/02/04 06:47:11;;;;;;;4.40;2.67;;;0.00;99.90;;;;;;5008611;28;20014;-78
2023/02/04 06:49:37;;;;;;;4.47;3.08;;;0.00;99.90;;;;;;4997435;28;20037;-78
2023/02/04 06:52:02;;;;;;;6.40;3.40;;;0.00;99.90;;;;;;5002008;28;20499;-79
2023/02/04 06:54:28;;;;;;;4.82;3.15;;;0.00;99.90;;;;;;5006232;28;20523;-79
2023/02/04 06:56:53;;;;;;;3.65;2.95;;;0.00;99.90;;;;;;5003827;28;20034;-78
2023/02/04 06:59:19;;;;;;;3.40;2.80;;;0.00;99.90;;;;;;5005391;28;20022;-78
2023/02/04 07:01:45;;;;;;;4.07;3.15;;;0.00;99.90;;;;;;4998048;28;20085;-78
2023/02/04 07:04:10;;;;;;;3.45;3.15;;;-0.10;99.90;;;;;;4998916;28;20023;-79
2023/02/04 07:06:36;;;;;;;4.72;3.45;;;-0.10;99.90;;;;;;5006301;28;20031;-78
2023/02/04 07:09:01;;;;;;;5.45;3.55;;;-0.10;99.90;;;;;;5002277;28;20544;-79
2023/02/04 07:11:28;;;;;;;5.57;4.03;;;-0.10;99.90;;;;;;5001659;28;20523;-79
2023/02/04 07:13:53;;;;;;;6.47;3.33;;;-0.10;99.90;;;;;;4997794;28;20048;-78
2023/02/04 07:16:19;;;;;;;5.15;3.05;;;-0.10;99.90;;;;;;5002654;28;20556;-78
2023/02/04 07:18:44;;;;;;;4.60;2.97;;;-0.10;99.90;;;;;;4992677;28;20036;-78
2023/02/04 07:21:10;;;;;;;4.93;3.22;;;-0.10;99.90;;;;;;5001042;28;20014;-78
2023/02/04 07:23:35;;;;;;;5.43;3.53;;;0.00;99.90;;;;;;5003876;28;20061;-78
2023/02/04 07:26:01;;;;;;;5.45;3.10;;;0.00;99.90;;;;;;4997209;28;20496;-78
2023/02/04 07:28:26;;;;;;;4.30;3.40;;;0.00;99.90;;;;;;4994508;28;20033;-78
2023/02/04 07:30:52;;;;;;;6.35;3.22;;;0.00;99.90;;;;;;5008250;28;20496;-78
2023/02/04 07:33:17;;;;;;;6.10;3.53;;;0.00;99.90;;;;;;5002215;28;20025;-77
2023/02/04 07:35:43;;;;;;;7.82;3.40;;;0.00;99.90;;;;;;5000248;28;20053;-78
2023/02/04 07:38:09;;;;;;;4.25;3.40;;;0.00;99.90;;;;;;5002996;28;20026;-79
2023/02/04 07:40:34;;;;;;;5.28;3.70;;;0.00;99.90;;;;;;5000964;28;20033;-77
2023/02/04 07:43:00;;;;;;;4.82;4.05;;;0.00;99.90;;;;;;5000872;28;20034;-78
2023/02/04 07:45:25;;;;;;;5.50;4.00;;;0.10;99.90;;;;;;4997430;28;20030;-79
2023/02/04 07:47:51;;;;;;;4.75;3.55;;;0.10;99.90;;;;;;5002141;28;20505;-78
2023/02/04 07:50:16;;;;;;;5.53;3.88;;;0.10;99.90;;;;;;5003488;28;20484;-78
2023/02/04 07:52:42;;;;;;;4.90;2.90;;;0.20;99.90;;;;;;5004647;28;20026;-77
2023/02/04 07:55:08;;;;;;;3.67;3.30;;;0.20;99.90;;;;;;4996444;28;20030;-77
2023/02/04 07:57:34;;;;;;;5.07;3.42;;;0.20;99.90;;;;;;5001286;28;20040;-79
2023/02/04 07:59:59;;;;;;;5.28;3.00;;;0.20;99.90;;;;;;5003416;28;20049;-78
2023/02/04 08:02:25;;;;;;;3.30;2.97;;;0.30;99.90;;;;;;5009812;28;20069;-79
2023/02/04 08:04:51;;;;;;;3.97;2.65;;;0.30;99.90;;;;;;5005795;28;20420;-79
2023/02/04 08:07:17;;;;;;;6.78;3.00;;;0.30;99.90;;;;;;5006088;28;20084;-79
2023/02/04 08:09:42;;;;;;;3.00;2.67;;;0.40;99.90;;;;;;5007910;28;20033;-78
2023/02/04 08:12:08;;;;;;;2.78;2.45;;;0.40;99.90;;;;;;4997596;28;20026;-78
2023/02/04 08:14:34;;;;;;;2.95;2.70;;;0.40;99.90;;;;;;5008355;28;20041;-78
2023/02/04 08:16:59;;;;;;;6.07;2.42;;;0.40;99.90;;;;;;5009084;28;20053;-77
2023/02/04 08:21:54;;;;;;;3.25;2.28;;;0.60;99.90;;;;;;5018218;28;20045;-59
2023/02/04 08:24:19;;;;;;;6.25;3.28;;;0.60;99.90;;;;;;5018214;28;20045;-56
2023/02/04 08:26:45;;;;;;;4.82;2.88;;;0.70;99.90;;;;;;5020515;28;20018;-57
2023/02/04 08:29:11;;;;;;;3.17;2.55;;;0.70;99.90;;;;;;5019721;28;20153;-59
2023/02/04 08:31:37;;;;;;;6.05;3.13;;;0.80;99.90;;;;;;5019725;28;20071;-55
2023/02/04 08:34:04;;;;;;;4.63;2.78;;;0.90;99.90;;;;;;5019320;28;20468;-56
2023/02/04 08:36:30;;;;;;;3.33;2.65;;;0.90;99.90;;;;;;5019494;28;20022;-60
2023/02/04 08:38:55;;;;;;;4.38;2.70;;;0.90;99.90;;;;;;5019231;28;20476;-57
2023/02/04 08:41:21;;;;;;;3.58;2.50;;;1.00;99.90;;;;;;5019832;28;20325;-58
2023/02/04 08:43:46;;;;;;;4.53;3.22;;;1.00;99.90;;;;;;5018442;28;20048;-61
2023/02/04 08:46:12;;;;;;;3.22;1.98;;;1.10;99.90;;;;;;5018872;28;20022;-55
2023/02/04 08:48:37;;;;;;;2.70;2.33;;;1.20;99.90;;;;;;5018891;28;20033;-61
2023/02/04 08:51:03;;;;;;;4.07;2.65;;;1.20;99.90;;;;;;5016462;28;20030;-59
2023/02/04 08:53:29;;;;;;;3.25;2.47;;;1.30;99.90;;;;;;5019403;28;20044;-61
2023/02/04 08:55:54;;;;;;;3.35;2.20;;;1.40;99.90;;;;;;5017688;28;20061;-58
2023/02/04 08:58:20;;;;;;;2.58;2.05;;;1.50;99.90;;;;;;5018763;28;20033;-57
2023/02/04 09:00:45;;;;;;;4.40;2.08;;;1.60;99.90;;;;;;5018605;28;20026;-58
2023/02/04 09:03:11;;;;;;;4.90;2.10;;;1.70;99.90;;;;;;5018454;28;20040;-60
2023/02/04 09:05:36;;;;;;;2.22;1.77;;;1.80;99.90;;;;;;5018236;28;20021;-61
2023/02/04 09:08:02;;;;;;;3.53;1.98;;;1.90;99.90;;;;;;5017618;28;20499;-61
2023/02/04 09:10:27;;;;;;;2.65;1.88;;;2.00;99.90;;;;;;5019017;28;20130;-60
2023/02/04 09:12:54;;;;;;;2.58;1.70;;;2.00;99.90;;;;;;5019018;28;20044;-60
2023/02/04 09:15:23;;;;;;;2.72;1.77;;;2.10;99.90;;;;;;5016302;28;20036;-60
2023/02/04 09:18:00;;;;;;;3.58;1.73;;;2.20;99.90;;;;;;5019380;28;20022;-58
2023/02/04 09:20:25;;;;;;;3.08;1.45;;;2.20;99.90;;;;;;5016697;28;20034;-62
2023/02/04 09:22:51;;;;;;;3.05;1.67;;;2.20;99.90;;;;;;5018268;28;20037;-60
2023/02/04 09:25:16;;;;;;;2.20;1.30;;;2.20;99.90;;;;;;5018565;28;20084;-62
2023/02/04 09:27:42;;;;;;;3.00;1.40;;;2.20;99.90;;;;;;5018834;28;20028;-62
2023/02/04 09:30:08;;;;;;;2.65;1.98;;;2.20;99.90;;;;;;5018195;28;20083;-60
2023/02/04 09:32:34;;;;;;;3.05;1.90;;;2.30;99.90;;;;;;5019052;28;20026;-63
2023/02/04 09:34:59;;;;;;;2.38;1.70;;;2.30;99.90;;;;;;5017217;28;20038;-61
2023/02/04 09:37:25;;;;;;;3.30;1.98;;;2.40;99.90;;;;;;5018095;28;20034;-61
2023/02/04 09:39:51;;;;;;;4.45;1.70;;;2.50;99.90;;;;;;5017045;28;20026;-61
2023/02/04 09:42:18;;;;;;;1.98;1.48;;;2.50;99.90;;;;;;5018104;28;20030;-60
2023/02/04 09:44:44;;;;;;;1.48;1.10;;;2.50;99.90;;;;;;5017423;28;20582;-63
2023/02/04 09:47:12;;;;;;;1.77;1.67;;;2.50;99.90;;;;;;5016151;28;20044;-62
2023/02/04 09:49:37;;;;;;;3.45;1.70;;;2.60;99.90;;;;;;5016806;28;20535;-62
2023/02/04 09:52:03;;;;;;;4.30;1.45;;;2.70;99.90;;;;;;5018332;28;20021;-61
2023/02/04 09:54:29;;;;;;;2.90;1.80;;;2.70;99.90;;;;;;5018421;28;20037;-62
2023/02/04 09:56:54;;;;;;;1.40;1.30;;;2.80;99.90;;;;;;5016815;28;20439;-61
2023/02/04 09:59:21;;;;;;;4.25;1.73;;;2.90;99.90;;;;;;5017277;28;20604;-61
2023/02/04 10:02:18;;;;;;;1.35;1.25;;;2.90;99.90;;;;;;5018067;28;20028;-63
2023/02/04 10:04:44;;;;;;;2.55;1.17;;;2.90;99.90;;;;;;5017852;28;20465;-61
2023/02/04 10:07:11;;;;;;;1.40;1.02;;;3.00;99.90;;;;;;5018670;28;20108;-62
2023/02/04 10:09:38;;;;;;;2.55;1.48;;;3.00;99.90;;;;;;5016811;28;20088;-62
2023/02/04 10:12:05;;;;;;;1.60;1.30;;;3.10;99.90;;;;;;5017343;28;20018;-62
2023/02/04 10:14:31;;;;;;;3.47;1.52;;;3.20;99.90;;;;;;5018527;28;20037;-64
2023/02/04 10:16:59;;;;;;;1.85;1.25;;;3.20;99.90;;;;;;5016848;28;20026;-58
2023/02/04 10:19:26;;;;;;;3.83;1.27;;;3.30;99.90;;;;;;5017434;28;20022;-60
2023/02/04 10:21:52;;;;;;;2.35;1.08;;;3.40;99.90;;;;;;5017865;28;20049;-62
2023/02/04 10:24:21;;;;;;;2.17;1.38;;;3.40;99.90;;;;;;5016800;28;20168;-63
2023/02/04 10:26:47;;;;;;;2.20;0.98;;;3.60;99.90;;;;;;5017368;28;20112;-61
2023/02/04 10:29:19;;;;;;;2.08;1.42;;;3.60;99.90;;;;;;5017382;28;20029;-61
2023/02/04 10:31:47;;;;;;;2.10;1.38;;;3.70;99.90;;;;;;5017436;28;20041;-61
2023/02/04 10:34:22;;;;;;;1.30;1.20;;;3.70;99.90;;;;;;5017772;28;20018;-61
2023/02/04 10:36:56;;;;;;;4.25;1.83;;;3.90;99.90;;;;;;5017708;28;20022;-61
2023/02/04 10:39:23;;;;;;;1.58;1.35;;;3.90;99.90;;;;;;5017750;28;20021;-61
2023/02/04 10:41:54;;;;;;;1.38;1.25;;;4.00;99.90;;;;;;5018208;28;20026;-59
2023/02/04 10:44:26;;;;;;;2.58;1.25;;;4.10;99.90;;;;;;5018093;28;20026;-57
2023/02/04 10:47:03;;;;;;;1.92;1.40;;;4.00;99.90;;;;;;5017574;28;20076;-62
2023/02/04 10:49:30;;;;;;;2.28;1.13;;;4.10;99.90;;;;;;5020336;28;20117;-60
2023/02/04 10:51:55;;;;;;;4.10;1.25;;;4.10;99.90;;;;;;5021061;28;20022;-62
2023/02/04 10:54:31;;;;;;;4.55;1.17;;;4.10;99.90;;;;;;5021731;28;20567;-57
2023/02/04 10:57:15;;;;;;;1.65;1.05;;;4.10;99.90;;;;;;5019704;28;20041;-60
2023/02/04 10:59:42;;;;;;;1.85;1.10;;;4.10;99.90;;;;;;5018861;28;20029;-62
2023/02/04 11:02:46;;;;;;;3.05;1.50;;;4.10;99.90;;;;;;5019866;28;20083;-58
2023/02/04 11:05:20;;;;;;;1.88;1.35;;;4.10;99.90;;;;;;5021406;28;20029;-61
2023/02/04 11:07:47;;;;;;;1.70;1.27;;;4.10;99.90;;;;;;5021329;28;20022;-59
2023/02/04 11:10:22;;;;;;;2.22;1.10;;;4.10;99.90;;;;;;5020807;28;20018;-60
2023/02/04 11:12:53;;;;;;;2.78;1.40;;;4.10;99.90;;;;;;5020922;28;20033;-57
2023/02/04 11:15:43;;;;;;;2.42;1.48;;;4.00;99.90;;;;;;5020950;28;20057;-61
2023/02/04 11:18:29;;;;;;;1.83;1.45;;;4.10;99.90;;;;;;5019661;28;20451;-60
2023/02/04 11:20:57;;;;;;;2.05;1.85;;;4.10;99.90;;;;;;5020334;28;20050;-55
2023/02/04 11:23:26;;;;;;;1.17;0.95;;;4.10;99.90;;;;;;5020929;28;20033;-57
2023/02/04 11:26:09;;;;;;;3.20;1.02;;;4.10;99.90;;;;;;5020220;28;20384;-59
2023/02/04 11:28:39;;;;;;;3.45;1.27;;;4.10;99.90;;;;;;5019824;28;20042;-60
2023/02/04 11:31:18;;;;;;;1.75;1.23;;;4.00;99.90;;;;;;5020228;28;20079;-60
2023/02/04 11:33:43;;;;;;;1.92;1.17;;;4.00;99.90;;;;;;5020821;28;20026;-62
2023/02/04 11:36:12;;;;;;;3.20;1.30;;;4.00;99.90;;;;;;5020502;28;20021;-59
2023/02/04 11:38:38;;;;;;;2.05;1.20;;;4.00;99.90;;;;;;5019295;28;20590;-60
2023/02/04 11:41:04;;;;;;;1.67;1.30;;;4.00;99.90;;;;;;5020191;28;20073;-60
2023/02/04 11:43:34;;;;;;;2.28;1.30;;;4.00;99.90;;;;;;5019917;28;20029;-61
2023/02/04 11:46:11;;;;;;;2.05;1.25;;;4.00;99.90;;;;;;5020438;28;20021;-62
2023/02/04 11:48:37;;;;;;;2.33;1.63;;;4.00;99.90;;;;;;5019810;28;20506;-61
2023/02/04 11:51:16;;;;;;;2.97;1.55;;;4.10;99.90;;;;;;5019398;28;20029;-61
2023/02/04 11:53:42;;;;;;;1.52;1.38;;;4.10;99.90;;;;;;5020345;28;20452;-59
2023/02/04 11:56:21;;;;;;;1.67;1.35;;;4.00;99.90;;;;;;5019653;28;20112;-60
2023/02/04 11:58:48;;;;;;;1.63;1.38;;;4.10;99.90;;;;;;5019442;28;20037;-61
2023/02/04 12:01:22;;;;;;;1.40;1.30;;;4.10;99.90;;;;;;5018506;28;20026;-60
2023/02/04 12:03:57;;;;;;;1.42;1.30;;;4.20;99.90;;;;;;5017953;28;20510;-61
2023/02/04 12:06:31;;;;;;;1.60;1.40;;;4.20;99.90;;;;;;5020073;28;20052;-60
2023/02/04 12:09:16;;;;;;;2.00;1.30;;;4.20;99.90;;;;;;5018712;28;20034;-58
2023/02/04 12:11:53;;;;;;;2.17;1.42;;;4.20;99.90;;;;;;5018337;28;20030;-60
2023/02/04 12:14:19;;;;;;;1.20;1.00;;;4.20;99.90;;;;;;5018736;28;20201;-60
2023/02/04 12:16:45;;;;;;;2.13;1.40;;;4.20;99.90;;;;;;5018644;28;20491;-59
2023/02/04 12:19:11;;;;;;;1.92;1.30;;;4.10;99.90;;;;;;5019770;28;20022;-60
2023/02/04 12:21:37;;;;;;;2.03;1.58;;;4.20;99.90;;;;;;5019192;28;20048;-61
2023/02/04 12:24:03;;;;;;;2.70;1.20;;;4.10;99.90;;;;;;5019545;28;20404;-59
2023/02/04 12:26:29;;;;;;;2.00;1.50;;;4.10;99.90;;;;;;5019775;28;20029;-58
2023/02/04 12:28:55;;;;;;;1.58;1.48;;;4.00;99.90;;;;;;5018524;28;20511;-60
2023/02/04 12:31:20;;;;;;;1.20;1.10;;;4.00;99.90;;;;;;5019668;28;20118;-60
2023/02/04 12:33:46;;;;;;;1.83;1.33;;;4.00;99.90;;;;;;5017855;28;20026;-57
2023/02/04 12:36:12;;;;;;;1.60;1.30;;;3.80;99.90;;;;;;5018383;28;20022;-60
2023/02/04 12:38:37;;;;;;;3.70;1.38;;;3.80;99.90;;;;;;5018202;28;20033;-60
2023/02/04 12:41:03;;;;;;;3.10;1.35;;;3.80;99.90;;;;;;5019565;28;20145;-60
2023/02/04 12:43:28;;;;;;;1.80;1.13;;;3.80;99.90;;;;;;5018486;28;20029;-60
2023/02/04 12:45:54;;;;;;;2.20;1.50;;;3.80;99.90;;;;;;5019226;28;20464;-60
2023/02/04 12:48:20;;;;;;;3.20;1.30;;;3.80;99.90;;;;;;5018885;28;20029;-59
2023/02/04 12:50:45;;;;;;;2.83;1.27;;;3.70;99.90;;;;;;5018487;28;20026;-59
2023/02/04 12:53:11;;;;;;;2.05;1.20;;;3.80;99.90;;;;;;5018216;28;20215;-57
2023/02/04 12:55:36;;;;;;;2.90;1.63;;;3.80;99.90;;;;;;5019055;28;20030;-60
2023/02/04 12:58:02;;;;;;;1.27;1.17;;;3.80;99.90;;;;;;5017032;28;20531;-60
2023/02/04 13:00:28;;;;;;;4.10;1.30;;;3.80;99.90;;;;;;5019216;28;20435;-61